Langsund — LLPM — position and weather

sailwx.info

Track history (hours):
 
Tides and Currents Weather Stations Pressure Air Temp Water Temp Dewpoint Dewpoint Depression Visibility Wind Speed Wind Dir Waves Ship Positions

Langsund

Last reported at 2018-Feb-16 19:02 UTC. Time now 2018-Feb-18 09:04 UTC.
Position N 62°47' E 006°28'.

Length 44 m; draft 4.5 m.

Type: . MMSI: 258476000.

Date/timePositionNaut miles runAvg speedWind from/ knotsBaromVisibWave heightAir tempDewpointWater temp
2018-Feb-16 19:02N 62°47' E 006°28'0 9.0
2018-Feb-16 19:00N 62°47' E 006°29'4 7.3
2018-Feb-16 18:30N 62°48' E 006°37'4 8.5
2018-Feb-16 18:00N 62°50' E 006°45'1 2.0
2018-Feb-16 17:30N 62°51' E 006°47'2 3.4
2018-Feb-16 17:00N 62°49' E 006°44'4 7.2
2018-Feb-16 16:26N 62°46' E 006°47'4 1.1
2018-Feb-16 12:21N 62°45' E 006°56'410.5
2018-Feb-16 11:59N 62°45' E 006°48'4 8.2
2018-Feb-16 11:30N 62°49' E 006°44'2 4.1
2018-Feb-16 10:57N 62°51' E 006°47'1 3.2
2018-Feb-16 10:30N 62°50' E 006°45'4 7.5
2018-Feb-16 09:56N 62°46' E 006°47'3 0.1
2018-Feb-15 07:51N 62°45' E 006°54'510.5
2018-Feb-15 07:22N 62°46' E 006°43'4 9.2
2018-Feb-15 06:59N 62°50' E 006°45'1 2.9
2018-Feb-15 06:30N 62°51' E 006°47'3 5.2
2018-Feb-15 06:00N 62°49' E 006°43'4 7.7
2018-Feb-15 05:30N 62°45' E 006°48'4 1.3
2018-Feb-15 02:35N 62°45' E 006°57'110.5
2018-Feb-15 02:28N 62°45' E 006°54'510.8
2018-Feb-15 02:00N 62°46' E 006°43'5 9.9
2018-Feb-15 01:30N 62°51' E 006°46'0 0.7
2018-Feb-15 01:00N 62°51' E 006°47'3 5.9
2018-Feb-15 00:30N 62°48' E 006°43'5 8.2
2018-Feb-14 23:54N 62°45' E 006°52'2 0.7
2018-Feb-14 20:36N 62°45' E 006°56'110.4
2018-Feb-14 20:29N 62°45' E 006°54'610.0
2018-Feb-14 19:56N 62°47' E 006°43'410.2
2018-Feb-14 19:31N 62°51' E 006°46'0 0.5
2018-Feb-14 18:57N 62°51' E 006°47'3 7.5
2018-Feb-14 18:30N 62°48' E 006°42'5 8.3
2018-Feb-14 17:53N 62°45' E 006°52'19 3.9
2018-Feb-14 12:53N 62°36' E 006°16'410.7
2018-Feb-14 12:30N 62°32' E 006°11'4 8.4
2018-Feb-14 12:00N 62°28' E 006°07'1 1.6
2018-Feb-14 11:30N 62°28' E 006°09'0 0.0
2018-Feb-14 11:00N 62°28' E 006°09'0 0.0
2018-Feb-14 10:30N 62°28' E 006°09'0 0.0
2018-Feb-14 10:01N 62°28' E 006°09'0 0.0
2018-Feb-14 09:30N 62°28' E 006°09'4 0.1
2018-Feb-13 09:00N 62°26' E 006°03'3 5.9
2018-Feb-13 08:30N 62°28' E 006°07'1 1.6
2018-Feb-13 08:00N 62°28' E 006°09'0 0.0
2018-Feb-13 07:30N 62°28' E 006°09'0 0.0
2018-Feb-13 07:00N 62°28' E 006°09'0 0.0
2018-Feb-13 06:30N 62°28' E 006°09'0 0.0
2018-Feb-13 06:00N 62°28' E 006°09'0 0.0
2018-Feb-13 05:30N 62°28' E 006°09'0 0.0
2018-Feb-13 05:00N 62°28' E 006°09'0 0.0
2018-Feb-13 04:29N 62°28' E 006°09'0 0.0
2018-Feb-13 04:00N 62°28' E 006°09'0 0.0
2018-Feb-13 03:30N 62°28' E 006°09'0 0.0
2018-Feb-13 03:00N 62°28' E 006°09'0 0.0
2018-Feb-13 02:29N 62°28' E 006°09'0 0.0
2018-Feb-13 01:59N 62°28' E 006°09'0 0.0
2018-Feb-13 01:30N 62°28' E 006°09'0 0.0
2018-Feb-13 00:59N 62°28' E 006°09'0 0.0
2018-Feb-13 00:30N 62°28' E 006°09'0 0.0
2018-Feb-13 00:00N 62°28' E 006°09'0 0.0
2018-Feb-12 23:30N 62°28' E 006°09'0 0.0
2018-Feb-12 23:00N 62°28' E 006°09'0 0.0
2018-Feb-12 22:29N 62°28' E 006°09'0 0.0
2018-Feb-12 21:59N 62°28' E 006°09'0 0.0
2018-Feb-12 21:30N 62°28' E 006°09'0 0.0
2018-Feb-12 20:58N 62°28' E 006°09'0 0.0
2018-Feb-12 20:29N 62°28' E 006°09'0 0.0
2018-Feb-12 20:00N 62°28' E 006°09'0 0.7
2018-Feb-12 19:29N 62°29' E 006°09'1310.3
2018-Feb-12 18:15N 62°40' E 006°25'310.8
2018-Feb-12 17:56N 62°42' E 006°29'410.7
2018-Feb-12 17:30N 62°46' E 006°34'510.5
2018-Feb-12 17:00N 62°50' E 006°42'2 4.3
2018-Feb-12 16:30N 62°51' E 006°47'1 1.4
2018-Feb-12 16:00N 62°50' E 006°45'5 7.2
2018-Feb-12 15:18N 62°46' E 006°48'2 0.6
2018-Feb-12 11:47N 62°45' E 006°53'411.0
2018-Feb-12 11:23N 62°46' E 006°44'4 9.6
2018-Feb-12 10:59N 62°50' E 006°45'1 2.4
2018-Feb-12 10:28N 62°51' E 006°47'2 3.4
2018-Feb-12 09:58N 62°49' E 006°44'4 7.2
2018-Feb-12 09:25N 62°46' E 006°47'6 1.7
2018-Feb-12 05:37N 62°39' E 006°44'1410.4
2018-Feb-12 04:16N 62°36' E 006°15'310.9
2018-Feb-12 04:00N 62°33' E 006°11'510.1
2018-Feb-12 03:30N 62°29' E 006°09'0 0.3
2018-Feb-12 03:00N 62°28' E 006°09'0 0.0
2018-Feb-12 02:30N 62°28' E 006°09'0 0.0
2018-Feb-12 02:00N 62°28' E 006°09'0 0.0
2018-Feb-12 01:30N 62°28' E 006°09'0 0.0
2018-Feb-12 01:00N 62°28' E 006°09'0 0.0
2018-Feb-12 00:30N 62°28' E 006°09'0 0.0
2018-Feb-12 00:00N 62°28' E 006°09'0 0.0
2018-Feb-11 23:29N 62°28' E 006°09'0 0.0
2018-Feb-11 23:00N 62°28' E 006°09'0 0.0
2018-Feb-11 22:30N 62°28' E 006°09'0 0.0
2018-Feb-11 22:00N 62°28' E 006°09'0 0.0
2018-Feb-11 21:30N 62°28' E 006°09'0 0.0
2018-Feb-11 20:58N 62°28' E 006°09'0 0.0
2018-Feb-11 20:30N 62°28' E 006°09'0 0.0
2018-Feb-11 20:00N 62°28' E 006°09'0 0.0
2018-Feb-11 19:30N 62°28' E 006°09'1 0.0
2018-Feb-09 17:30N 62°29' E 006°06'510.2
2018-Feb-09 17:00N 62°33' E 006°11'24 9.6
2018-Feb-09 14:30N 62°51' E 006°47'0 0.2
2018-Feb-09 14:01N 62°51' E 006°47'3 0.6
2018-Feb-09 09:00N 62°48' E 006°43'3 2.8
2018-Feb-09 08:00N 62°51' E 006°46'7 6.5
2018-Feb-09 07:00N 62°45' E 006°54'0 0.1
2018-Feb-09 01:00N 62°45' E 006°53'20 0.5
2018-Feb-07 06:27N 62°36' E 006°16'510.2
2018-Feb-07 06:00N 62°32' E 006°10'3 7.0
2018-Feb-07 05:30N 62°28' E 006°09'0 0.0
2018-Feb-07 05:00N 62°28' E 006°09'0 0.0
2018-Feb-07 04:30N 62°28' E 006°09'0 0.0
2018-Feb-07 04:00N 62°28' E 006°09'0 0.0
2018-Feb-07 03:30N 62°28' E 006°09'0 0.0
2018-Feb-07 03:00N 62°28' E 006°09'0 0.0
2018-Feb-07 02:30N 62°28' E 006°09'0 0.0
2018-Feb-07 02:00N 62°28' E 006°09'0 0.0
2018-Feb-07 01:30N 62°28' E 006°09'0 0.0
2018-Feb-07 01:00N 62°28' E 006°09'0 0.0
2018-Feb-07 00:30N 62°28' E 006°09'0 0.0
2018-Feb-07 00:00N 62°28' E 006°09'0 0.0
2018-Feb-06 23:30N 62°28' E 006°09'0 0.0
2018-Feb-06 23:00N 62°28' E 006°09'0 0.0
2018-Feb-06 22:30N 62°28' E 006°09'0 0.0
2018-Feb-06 22:00N 62°28' E 006°09'0 0.0
2018-Feb-06 21:30N 62°28' E 006°09'0 0.0
2018-Feb-06 21:00N 62°28' E 006°09'0 0.0
2018-Feb-06 20:30N 62°28' E 006°09'0 0.0
2018-Feb-06 20:00N 62°28' E 006°09'0 0.0
2018-Feb-06 19:30N 62°28' E 006°09'  
Track history (hours):
 
Tides and Currents Weather Stations Pressure Air Temp Water Temp Dewpoint Dewpoint Depression Visibility Wind Speed Wind Dir Waves Ship Positions

Langsund

Last reported at 2018-Feb-16 19:02 UTC. Time now 2018-Feb-18 09:04 UTC.
Position N 62°47' E 006°28'.

Length 44 m; draft 4.5 m.

Type: . MMSI: 258476000.

Date/timePositionNaut miles runAvg speedWind from/ knotsBaromVisibWave heightAir tempDewpointWater temp
2018-Feb-16 19:02N 62°47' E 006°28'0 9.0
2018-Feb-16 19:00N 62°47' E 006°29'4 7.3
2018-Feb-16 18:30N 62°48' E 006°37'4 8.5
2018-Feb-16 18:00N 62°50' E 006°45'1 2.0
2018-Feb-16 17:30N 62°51' E 006°47'2 3.4
2018-Feb-16 17:00N 62°49' E 006°44'4 7.2
2018-Feb-16 16:26N 62°46' E 006°47'4 1.1
2018-Feb-16 12:21N 62°45' E 006°56'410.5
2018-Feb-16 11:59N 62°45' E 006°48'4 8.2
2018-Feb-16 11:30N 62°49' E 006°44'2 4.1
2018-Feb-16 10:57N 62°51' E 006°47'1 3.2
2018-Feb-16 10:30N 62°50' E 006°45'4 7.5
2018-Feb-16 09:56N 62°46' E 006°47'3 0.1
2018-Feb-15 07:51N 62°45' E 006°54'510.5
2018-Feb-15 07:22N 62°46' E 006°43'4 9.2
2018-Feb-15 06:59N 62°50' E 006°45'1 2.9
2018-Feb-15 06:30N 62°51' E 006°47'3 5.2
2018-Feb-15 06:00N 62°49' E 006°43'4 7.7
2018-Feb-15 05:30N 62°45' E 006°48'4 1.3
2018-Feb-15 02:35N 62°45' E 006°57'110.5
2018-Feb-15 02:28N 62°45' E 006°54'510.8
2018-Feb-15 02:00N 62°46' E 006°43'5 9.9
2018-Feb-15 01:30N 62°51' E 006°46'0 0.7
2018-Feb-15 01:00N 62°51' E 006°47'3 5.9
2018-Feb-15 00:30N 62°48' E 006°43'5 8.2
2018-Feb-14 23:54N 62°45' E 006°52'2 0.7
2018-Feb-14 20:36N 62°45' E 006°56'110.4
2018-Feb-14 20:29N 62°45' E 006°54'610.0
2018-Feb-14 19:56N 62°47' E 006°43'410.2
2018-Feb-14 19:31N 62°51' E 006°46'0 0.5
2018-Feb-14 18:57N 62°51' E 006°47'3 7.5
2018-Feb-14 18:30N 62°48' E 006°42'5 8.3
2018-Feb-14 17:53N 62°45' E 006°52'19 3.9
2018-Feb-14 12:53N 62°36' E 006°16'410.7
2018-Feb-14 12:30N 62°32' E 006°11'4 8.4
2018-Feb-14 12:00N 62°28' E 006°07'1 1.6
2018-Feb-14 11:30N 62°28' E 006°09'0 0.0
2018-Feb-14 11:00N 62°28' E 006°09'0 0.0
2018-Feb-14 10:30N 62°28' E 006°09'0 0.0
2018-Feb-14 10:01N 62°28' E 006°09'0 0.0
2018-Feb-14 09:30N 62°28' E 006°09'4 0.1
2018-Feb-13 09:00N 62°26' E 006°03'3 5.9
2018-Feb-13 08:30N 62°28' E 006°07'1 1.6
2018-Feb-13 08:00N 62°28' E 006°09'0 0.0
2018-Feb-13 07:30N 62°28' E 006°09'0 0.0
2018-Feb-13 07:00N 62°28' E 006°09'0 0.0
2018-Feb-13 06:30N 62°28' E 006°09'0 0.0
2018-Feb-13 06:00N 62°28' E 006°09'0 0.0
2018-Feb-13 05:30N 62°28' E 006°09'0 0.0
2018-Feb-13 05:00N 62°28' E 006°09'0 0.0
2018-Feb-13 04:29N 62°28' E 006°09'0 0.0
2018-Feb-13 04:00N 62°28' E 006°09'0 0.0
2018-Feb-13 03:30N 62°28' E 006°09'0 0.0
2018-Feb-13 03:00N 62°28' E 006°09'0 0.0
2018-Feb-13 02:29N 62°28' E 006°09'0 0.0
2018-Feb-13 01:59N 62°28' E 006°09'0 0.0
2018-Feb-13 01:30N 62°28' E 006°09'0 0.0
2018-Feb-13 00:59N 62°28' E 006°09'0 0.0
2018-Feb-13 00:30N 62°28' E 006°09'0 0.0
2018-Feb-13 00:00N 62°28' E 006°09'0 0.0
2018-Feb-12 23:30N 62°28' E 006°09'0 0.0
2018-Feb-12 23:00N 62°28' E 006°09'0 0.0
2018-Feb-12 22:29N 62°28' E 006°09'0 0.0
2018-Feb-12 21:59N 62°28' E 006°09'0 0.0
2018-Feb-12 21:30N 62°28' E 006°09'0 0.0
2018-Feb-12 20:58N 62°28' E 006°09'0 0.0
2018-Feb-12 20:29N 62°28' E 006°09'0 0.0
2018-Feb-12 20:00N 62°28' E 006°09'0 0.7
2018-Feb-12 19:29N 62°29' E 006°09'1310.3
2018-Feb-12 18:15N 62°40' E 006°25'310.8
2018-Feb-12 17:56N 62°42' E 006°29'410.7
2018-Feb-12 17:30N 62°46' E 006°34'510.5
2018-Feb-12 17:00N 62°50' E 006°42'2 4.3
2018-Feb-12 16:30N 62°51' E 006°47'1 1.4
2018-Feb-12 16:00N 62°50' E 006°45'5 7.2
2018-Feb-12 15:18N 62°46' E 006°48'2 0.6
2018-Feb-12 11:47N 62°45' E 006°53'411.0
2018-Feb-12 11:23N 62°46' E 006°44'4 9.6
2018-Feb-12 10:59N 62°50' E 006°45'1 2.4
2018-Feb-12 10:28N 62°51' E 006°47'2 3.4
2018-Feb-12 09:58N 62°49' E 006°44'4 7.2
2018-Feb-12 09:25N 62°46' E 006°47'6 1.7
2018-Feb-12 05:37N 62°39' E 006°44'1410.4
2018-Feb-12 04:16N 62°36' E 006°15'310.9
2018-Feb-12 04:00N 62°33' E 006°11'510.1
2018-Feb-12 03:30N 62°29' E 006°09'0 0.3
2018-Feb-12 03:00N 62°28' E 006°09'0 0.0
2018-Feb-12 02:30N 62°28' E 006°09'0 0.0
2018-Feb-12 02:00N 62°28' E 006°09'0 0.0
2018-Feb-12 01:30N 62°28' E 006°09'0 0.0
2018-Feb-12 01:00N 62°28' E 006°09'0 0.0
2018-Feb-12 00:30N 62°28' E 006°09'0 0.0
2018-Feb-12 00:00N 62°28' E 006°09'0 0.0
2018-Feb-11 23:29N 62°28' E 006°09'0 0.0
2018-Feb-11 23:00N 62°28' E 006°09'0 0.0
2018-Feb-11 22:30N 62°28' E 006°09'0 0.0
2018-Feb-11 22:00N 62°28' E 006°09'0 0.0
2018-Feb-11 21:30N 62°28' E 006°09'0 0.0
2018-Feb-11 20:58N 62°28' E 006°09'0 0.0
2018-Feb-11 20:30N 62°28' E 006°09'0 0.0
2018-Feb-11 20:00N 62°28' E 006°09'0 0.0
2018-Feb-11 19:30N 62°28' E 006°09'1 0.0
2018-Feb-09 17:30N 62°29' E 006°06'510.2
2018-Feb-09 17:00N 62°33' E 006°11'24 9.6
2018-Feb-09 14:30N 62°51' E 006°47'0 0.2
2018-Feb-09 14:01N 62°51' E 006°47'3 0.6
2018-Feb-09 09:00N 62°48' E 006°43'3 2.8
2018-Feb-09 08:00N 62°51' E 006°46'7 6.5
2018-Feb-09 07:00N 62°45' E 006°54'0 0.1
2018-Feb-09 01:00N 62°45' E 006°53'20 0.5
2018-Feb-07 06:27N 62°36' E 006°16'510.2
2018-Feb-07 06:00N 62°32' E 006°10'3 7.0
2018-Feb-07 05:30N 62°28' E 006°09'0 0.0
2018-Feb-07 05:00N 62°28' E 006°09'0 0.0
2018-Feb-07 04:30N 62°28' E 006°09'0 0.0
2018-Feb-07 04:00N 62°28' E 006°09'0 0.0
2018-Feb-07 03:30N 62°28' E 006°09'0 0.0
2018-Feb-07 03:00N 62°28' E 006°09'0 0.0
2018-Feb-07 02:30N 62°28' E 006°09'0 0.0
2018-Feb-07 02:00N 62°28' E 006°09'0 0.0
2018-Feb-07 01:30N 62°28' E 006°09'0 0.0
2018-Feb-07 01:00N 62°28' E 006°09'0 0.0
2018-Feb-07 00:30N 62°28' E 006°09'0 0.0
2018-Feb-07 00:00N 62°28' E 006°09'0 0.0
2018-Feb-06 23:30N 62°28' E 006°09'0 0.0
2018-Feb-06 23:00N 62°28' E 006°09'0 0.0
2018-Feb-06 22:30N 62°28' E 006°09'0 0.0
2018-Feb-06 22:00N 62°28' E 006°09'0 0.0
2018-Feb-06 21:30N 62°28' E 006°09'0 0.0
2018-Feb-06 21:00N 62°28' E 006°09'0 0.0
2018-Feb-06 20:30N 62°28' E 006°09'0 0.0
2018-Feb-06 20:00N 62°28' E 006°09'0 0.0
2018-Feb-06 19:30N 62°28' E 006°09'  

Dump ship's entire track history